Terminal Aerodrome Forecast
Issued by NWS

Home | Current Version | Previous Version | Text Only | Print | Product List | Glossary On
Versions: 1 2 3 4 5 6 7 8 9 10 11 12 13 14 15 16
000
FTAK31 PAJN 011739
TAFAWG
TAF
PAWG 011739Z 0118/0218 08008KT P6SM -RA SCT025 BKN040 OVC050
     FM020000 12012G20KT 5SM RA BR FEW006 BKN025 OVC035
     FM020600 13015G25KT 6SM -RA BR SCT006 BKN025 OVC035
      AMD LTD TO CLD VIS AND WIND 0206/0215=

USA.gov is the U.S. government's official web portal to all federal, state and local government web resources and services.